createdAt,value
2022-11-15T00:02:46.416Z,28.00
2022-11-15T00:08:07.908Z,26.13
2022-11-15T00:13:31.980Z,26.90
2022-11-15T00:18:53.548Z,26.10
2022-11-15T00:24:14.641Z,26.77
2022-11-15T00:29:38.771Z,29.60
2022-11-15T00:35:00.178Z,28.27
2022-11-15T00:40:21.463Z,26.73
2022-11-15T00:45:44.151Z,24.90
2022-11-15T00:51:05.447Z,26.07
2022-11-15T00:56:26.911Z,25.33
2022-11-15T01:01:50.060Z,24.87
2022-11-15T01:07:11.377Z,20.30
2022-11-15T01:12:33.492Z,24.30
2022-11-15T01:17:56.532Z,25.87
2022-11-15T01:23:17.995Z,24.73
2022-11-15T01:28:40.729Z,26.63
2022-11-15T01:34:03.483Z,24.23
2022-11-15T01:39:25.368Z,22.90
2022-11-15T01:44:49.897Z,22.30
2022-11-15T01:50:16.513Z,21.97
2022-11-15T01:55:37.847Z,23.10
2022-11-15T02:00:59.238Z,21.73
2022-11-15T02:06:23.726Z,20.07
2022-11-15T02:11:47.339Z,20.73
2022-11-15T02:17:23.059Z,21.47
2022-11-15T02:23:05.631Z,21.10
2022-11-15T02:28:53.119Z,20.93
2022-11-15T02:34:22.362Z,17.03
2022-11-15T02:39:48.914Z,18.03
2022-11-15T02:45:15.629Z,17.60
2022-11-15T02:50:38.343Z,17.23
2022-11-15T02:55:59.962Z,17.63
2022-11-15T03:01:31.432Z,16.03
2022-11-15T03:06:59.645Z,13.50
2022-11-15T03:12:35.958Z,13.53
2022-11-15T03:18:02.846Z,13.87
2022-11-15T03:23:27.506Z,17.17
2022-11-15T03:28:55.092Z,15.10
2022-11-15T03:34:23.686Z,16.23
2022-11-15T03:39:46.783Z,15.37
2022-11-15T03:45:17.325Z,17.27
2022-11-15T03:50:39.202Z,16.40
2022-11-15T03:56:02.226Z,16.90
2022-11-15T04:01:23.888Z,17.53
2022-11-15T04:06:45.178Z,15.87
2022-11-15T04:12:08.398Z,18.13
2022-11-15T04:17:30.074Z,17.60
2022-11-15T04:23:12.559Z,19.90
2022-11-15T04:28:35.725Z,17.70
2022-11-15T04:33:57.486Z,18.20
2022-11-15T04:39:19.155Z,17.27
2022-11-15T04:44:41.732Z,17.70
2022-11-15T04:50:03.051Z,16.73
2022-11-15T04:55:24.467Z,17.90
2022-11-15T05:00:47.289Z,15.20
2022-11-15T05:06:09.176Z,17.00
2022-11-15T05:11:30.755Z,18.03
2022-11-15T05:16:53.580Z,18.27
2022-11-15T05:22:15.260Z,17.30
2022-11-15T05:27:36.899Z,18.23
2022-11-15T05:32:59.798Z,18.97
2022-11-15T05:38:21.650Z,19.03
2022-11-15T05:43:44.349Z,19.00
2022-11-15T05:49:10.201Z,19.60
2022-11-15T05:54:33.214Z,19.87
2022-11-15T05:59:56.472Z,20.50
2022-11-15T06:05:19.291Z,19.77
2022-11-15T06:10:40.821Z,17.80
2022-11-15T06:16:02.403Z,18.90
2022-11-15T06:21:25.301Z,18.60
2022-11-15T06:26:46.832Z,17.67
2022-11-15T06:32:08.186Z,18.50
2022-11-15T06:37:30.811Z,21.37
2022-11-15T06:42:52.050Z,21.03
2022-11-15T06:48:13.252Z,20.20
2022-11-15T06:53:36.143Z,19.47
2022-11-15T06:58:57.864Z,20.90
2022-11-15T07:04:19.307Z,22.63
2022-11-15T07:09:41.932Z,18.87
2022-11-15T07:15:03.239Z,21.60
2022-11-15T07:20:24.497Z,15.90
2022-11-15T07:25:47.105Z,17.23
2022-11-15T07:31:10.542Z,16.70
2022-11-15T07:36:31.810Z,20.60
2022-11-15T07:42:14.639Z,23.63
2022-11-15T07:47:35.807Z,18.73
2022-11-15T07:52:57.541Z,19.60
2022-11-15T07:58:20.409Z,19.00
2022-11-15T08:03:42.137Z,17.10
2022-11-15T08:09:03.618Z,16.00
2022-11-15T08:14:26.674Z,16.27
2022-11-15T08:19:48.935Z,13.33
2022-11-15T08:25:10.399Z,15.50
2022-11-15T08:30:38.310Z,15.80
2022-11-15T08:35:59.820Z,19.70
2022-11-15T08:41:27.887Z,22.93
2022-11-15T08:46:50.736Z,24.00
2022-11-15T08:52:12.236Z,23.30
2022-11-15T08:57:33.730Z,26.50
2022-11-15T09:02:56.623Z,19.70
2022-11-15T09:08:46.943Z,32.93
2022-11-15T09:13:59.427Z,18.30
2022-11-15T09:19:21.909Z,12.27
2022-11-15T09:24:43.816Z,15.67
2022-11-15T09:30:06.141Z,14.70
2022-11-15T09:35:29.223Z,16.67
2022-11-15T09:41:21.022Z,16.00
2022-11-15T09:46:54.596Z,19.80
2022-11-15T09:51:59.268Z,16.90
2022-11-15T09:57:10.528Z,17.50
2022-11-15T10:02:33.360Z,13.77
2022-11-15T10:07:48.747Z,11.90
2022-11-15T10:12:53.791Z,11.87
2022-11-15T10:18:08.841Z,12.00
2022-11-15T10:23:16.690Z,18.97
2022-11-15T10:28:27.980Z,19.70
2022-11-15T10:33:34.781Z,19.93
2022-11-15T10:38:54.766Z,22.47
2022-11-15T10:44:13.708Z,20.23
2022-11-15T10:49:18.439Z,22.13
2022-11-15T10:54:28.033Z,23.50
2022-11-15T10:59:38.757Z,21.13
2022-11-15T11:04:51.922Z,22.40
2022-11-15T11:10:17.717Z,23.07
2022-11-15T11:15:31.406Z,19.83
2022-11-15T11:20:41.383Z,20.00
2022-11-15T11:25:57.516Z,19.83
2022-11-15T11:31:14.148Z,17.87
2022-11-15T11:36:27.539Z,18.63
2022-11-15T11:41:45.666Z,20.37
2022-11-15T11:46:57.507Z,20.70
2022-11-15T11:52:07.570Z,20.50
2022-11-15T11:57:21.946Z,20.00
2022-11-15T12:02:31.500Z,19.80
2022-11-15T12:07:37.250Z,20.50
2022-11-15T12:12:49.640Z,20.47
2022-11-15T12:17:53.141Z,20.27
2022-11-15T12:23:00.196Z,19.07
2022-11-15T12:28:13.699Z,19.70
2022-11-15T12:33:35.167Z,18.60
2022-11-15T12:38:57.607Z,17.73
2022-11-15T12:44:02.849Z,19.10
2022-11-15T12:49:12.567Z,20.37
2022-11-15T12:54:56.814Z,18.67
2022-11-15T13:00:04.961Z,18.37
2022-11-15T13:06:00.753Z,20.27
2022-11-15T13:11:53.150Z,19.17
2022-11-15T13:17:00.688Z,19.33
2022-11-15T13:22:29.300Z,18.40
2022-11-15T13:27:33.257Z,18.97
2022-11-15T13:32:36.243Z,18.23
2022-11-15T13:37:40.944Z,19.30
2022-11-15T13:42:45.892Z,20.03
2022-11-15T13:47:55.927Z,19.37
2022-11-15T13:53:04.940Z,20.10
2022-11-15T13:58:08.108Z,18.80
2022-11-15T14:03:20.021Z,18.87
2022-11-15T14:08:26.375Z,18.10
2022-11-15T14:13:31.352Z,19.40
2022-11-15T14:18:45.978Z,19.03
2022-11-15T14:23:51.645Z,18.60
2022-11-15T14:28:54.638Z,18.50
2022-11-15T14:33:57.562Z,19.40
2022-11-15T14:39:02.330Z,19.83
2022-11-15T14:44:06.356Z,20.10
2022-11-15T14:49:09.476Z,18.90
2022-11-15T14:54:13.885Z,17.80
2022-11-15T14:59:16.819Z,19.10
2022-11-15T15:04:19.763Z,19.03
2022-11-15T15:09:24.038Z,30.57
2022-11-15T15:14:27.001Z,22.90
2022-11-15T15:19:29.966Z,21.30
2022-11-15T15:24:34.376Z,21.30
2022-11-15T15:29:37.359Z,18.00
2022-11-15T15:34:40.894Z,18.30
2022-11-15T15:39:45.235Z,18.60
2022-11-15T15:44:48.211Z,19.40
2022-11-15T15:49:52.609Z,19.40
2022-11-15T15:54:56.899Z,18.97
2022-11-15T15:59:59.813Z,18.73
2022-11-15T16:05:03.097Z,19.20
2022-11-15T16:10:19.580Z,33.70
2022-11-15T16:15:25.062Z,22.07
2022-11-15T16:20:37.567Z,20.47
2022-11-15T16:25:44.141Z,20.17
2022-11-15T16:30:50.000Z,23.23
2022-11-15T16:35:57.011Z,21.90
2022-11-15T16:41:01.780Z,24.77
2022-11-15T16:46:13.540Z,21.53
2022-11-15T16:51:17.802Z,18.23
2022-11-15T16:56:25.918Z,18.17
2022-11-15T17:01:30.613Z,18.90
2022-11-15T17:06:33.610Z,17.10
2022-11-15T17:11:38.006Z,21.30
2022-11-15T17:16:43.535Z,16.43
2022-11-15T17:21:49.542Z,26.80
2022-11-15T17:26:53.870Z,21.70
2022-11-15T17:31:56.930Z,18.77
2022-11-15T17:37:00.049Z,21.47
2022-11-15T17:42:04.382Z,16.80
2022-11-15T17:47:08.555Z,17.50
2022-11-15T17:52:11.805Z,21.27
2022-11-15T17:57:16.131Z,22.60
2022-11-15T18:02:19.503Z,23.30
2022-11-15T18:07:22.516Z,18.60
2022-11-15T18:12:26.929Z,17.50
2022-11-15T18:17:29.815Z,17.43
2022-11-15T18:22:32.825Z,18.87
2022-11-15T18:27:38.285Z,17.90
2022-11-15T18:32:41.226Z,21.90
2022-11-15T18:37:44.208Z,17.97
2022-11-15T18:42:48.670Z,18.93
2022-11-15T18:47:52.344Z,19.30
2022-11-15T18:52:55.531Z,17.30
2022-11-15T18:57:59.858Z,18.10
2022-11-15T19:03:02.807Z,22.13
2022-11-15T19:08:05.965Z,18.10
2022-11-15T19:13:10.291Z,18.40
2022-11-15T19:18:13.255Z,18.47
2022-11-15T19:23:16.425Z,16.50
2022-11-15T19:28:20.899Z,20.30
2022-11-15T19:33:27.647Z,17.00
2022-11-15T19:38:32.433Z,16.77
2022-11-15T19:43:37.174Z,18.10
2022-11-15T19:48:40.728Z,16.50
2022-11-15T19:53:44.465Z,15.17
2022-11-15T19:58:52.117Z,16.57
2022-11-15T20:03:57.827Z,16.40
2022-11-15T20:09:01.107Z,17.10
2022-11-15T20:14:06.591Z,17.10
2022-11-15T20:19:12.309Z,17.30
2022-11-15T20:24:16.276Z,16.80
2022-11-15T20:29:21.196Z,18.17
2022-11-15T20:34:24.230Z,16.50
2022-11-15T20:39:27.340Z,17.23
2022-11-15T20:44:31.800Z,21.63
2022-11-15T20:49:34.874Z,19.10
2022-11-15T20:54:38.237Z,17.37
2022-11-15T20:59:42.509Z,17.33
2022-11-15T21:04:45.643Z,16.93
2022-11-15T21:10:06.666Z,16.50
2022-11-15T21:15:12.194Z,15.10
2022-11-15T21:20:16.314Z,14.30
2022-11-15T21:25:19.264Z,17.03
2022-11-15T21:30:23.557Z,16.50
2022-11-15T21:35:26.474Z,17.60
2022-11-15T21:40:29.402Z,20.03
2022-11-15T21:45:33.918Z,17.37
2022-11-15T21:50:36.942Z,19.13
2022-11-15T21:55:40.442Z,20.20
2022-11-15T22:01:02.105Z,14.17
2022-11-15T22:06:06.966Z,12.43
2022-11-15T22:11:10.238Z,14.40
2022-11-15T22:16:14.651Z,15.90
2022-11-15T22:21:19.095Z,17.47
2022-11-15T22:26:24.073Z,18.17
2022-11-15T22:31:28.694Z,17.93
2022-11-15T22:36:46.831Z,17.00
2022-11-15T22:41:55.148Z,15.80
2022-11-15T22:46:59.511Z,17.20
2022-11-15T22:52:02.514Z,11.50
2022-11-15T22:57:05.607Z,14.90
2022-11-15T23:02:09.999Z,15.40
2022-11-15T23:07:13.135Z,14.40
2022-11-15T23:12:33.493Z,16.77
2022-11-15T23:17:38.303Z,18.00
2022-11-15T23:22:57.733Z,18.70
2022-11-15T23:28:02.738Z,13.40
2022-11-15T23:33:24.511Z,12.80
2022-11-15T23:38:27.548Z,17.60
2022-11-15T23:43:30.733Z,18.90
2022-11-15T23:48:35.435Z,16.97
2022-11-15T23:53:38.615Z,17.33
2022-11-15T23:58:42.320Z,19.00
